Aérodrome :
LOGIN :

S'inscrire | Disclaimer

   EN    FR    IT 

 










Légende :    VFR   VFR Marginal   IFR   IFR Intensif   IFR Très Intensif
Visi : 
Plafond : 
>= 8 km
>= 3000ft
5 à 8 km
1000 à 3000 ft
1500m à 5 km
500 à 1000 ft
800 à 1500m
200 à 500 ft
< 800m
< 200 ft
Symboles :   Orages  Brouillard  Fortes neiges  Fortes précipitations  Vent > 20 kt
SIGMETs :   Divers  Orages  Givrage  Turbulence  Onde Orograph.  Cendres Volcan.







- Altitude de l'aérodrome : 233 ft
- Code IATA : REU


LERS - Reus Tarragona

DERNIER METAR :
  • 171430Z 18004KT 090V230 9999 FEW060CB 24/16 Q1013

METARs EXPIRÉS :
  • 171400Z 19005KT 120V240 9999 FEW060CB 24/15 Q1013
  • 171330Z 19004KT 120V240 9999 SCT050 FEW060CB 23/15 Q1013
  • 171300Z 19005KT 130V230 9999 SCT048 FEW060CB 23/15 Q1014
  • 171230Z 14009KT 100V180 9999 SCT047 FEW060CB 23/15 Q1014
  • 171200Z VRB01KT 9999 SCT050TCU 24/10 Q1014

TAF TAF LERS
Valide du 17 à 15h jusqu'au 18 à 15h UTC


171400Z 1715/1815 VRB03KT 9999 SCT025 TX24/1812Z TN15/1806Z
TEMPO 1715/1717 14008KT
TEMPO 1715/1723 SCT020 FEW025TCU
BECMG 1808/1810 08010KT
PROB40
TEMPO 1812/1815 4000 TSRA SCT020 SCT025CB
Pas de NOTAMs connus pour ce terrain.



MET'MAP, la Météo Aéronautique d'un coup d'oeil ! - Copyright ORBIFLY Décembre 2007 - Disclaimer

ORBIFLY MET'MAP TEAM :

Programmation & Développement : Alexandra Zaïnal
Conception & Développement : Baudouin d'Aumeries
Co-Programmation & Développement : Marc-Olivier Méhu
Soutien technique & logistique : Manuel Goepfert

Contact : metmap@orbifly.com




SOURCES & CREDITS :

   NOAA